Aeroporto :
LOGIN :

Iscrizione | Disclaimer

   EN    FR    IT 

 










Sommario :    VFR   VFR Marginale   IFR   IFR Intensivo   IFR Molto Intensivo
Visibilità : 
Base nubi : 
>= 8 km
>= 3000ft
5 / 8 km
1000 / 3000 ft
1500m / 5 km
500 / 1000 ft
800 / 1500m
200 / 500 ft
< 800m
< 200 ft
Simboli :   Temporali  Nebbia  Neve Forte  Precipitazioni Forti  Vento > 20 kt
SIGMETs :   Varie  Temporali  Ghiacco  Turbolenza  Onda orograficha  Ceneri Vulcaniche






- Altitudine del aeroporto : 1306 ft
- Codice IATA : ACH


LSZR - Alten Rhein

ULTIMO METAR :
  • 121350Z 07004KT 9999 FEW030 BKN100 07/03 Q1006 NOSIG RMK I

METARs OBSOLETI :
  • 121320Z 08004KT 040V110 9999 FEW036 BKN100 07/03 Q1007 NOSIG RMK H
  • 121250Z 08004KT 040V110 9999 FEW036 BKN100 07/03 Q1007 NOSIG RMK H
  • 121220Z 11005KT 9999 FEW025 BKN100 06/03 Q1007 NOSIG RMK G
  • 121150Z 11005KT 9999 FEW025 BKN100 06/03 Q1007 NOSIG RMK G
  • 121120Z 14004KT 9999 FEW025 OVC100 07/02 Q1008 NOSIG RMK F

TAF TAF LSZR
Valido dal 12 a 12 ore il 12 a 21 ore UTC


121125Z 1212/1221 12004KT 9999 FEW040 BKN100
PROB30
TEMPO 1220/1221 SHRA
ATIS : +41 71 858 51 66



MetMap, La meteo Aeronautica in un colpo d'occhio ! - Copyright ORBIFLY Dicembre 2007 - Disclaimer

ORBIFLY MET'MAP TEAM :

Programmazione e sviluppo : Alexandra Zaïnal
Concezione e sviluppo : Baudouin d'Aumeries
Co-Programmazione e sviluppo : Marc-Olivier Méhu
Supporto tecnico e logistico : Manuel Goepfert
Aiuto per la traduzione : Arnaldo La Scala

Contatto : metmap@orbifly.com




FONTI E CREDITI :

   NOAA